createdAt,value
2023-03-05T00:04:13.432Z,100227.13
2023-03-05T00:09:15.720Z,100213.97
2023-03-05T00:14:17.833Z,100219.44
2023-03-05T00:19:20.150Z,100236.06
2023-03-05T00:24:22.209Z,100227.72
2023-03-05T00:29:25.728Z,100237.78
2023-03-05T00:34:28.792Z,100226.13
2023-03-05T00:39:31.441Z,100229.34
2023-03-05T00:44:33.592Z,100227.25
2023-03-05T00:49:35.874Z,100225.09
2023-03-05T00:54:37.952Z,100218.97
2023-03-05T00:59:41.174Z,100201.16
2023-03-05T01:04:45.976Z,100199.94
2023-03-05T01:09:48.125Z,100210.31
2023-03-05T01:14:50.261Z,100205.84
2023-03-05T01:19:52.444Z,100206.44
2023-03-05T01:24:54.869Z,100204.34
2023-03-05T01:29:57.229Z,100203.91
2023-03-05T01:35:00.571Z,100221.59
2023-03-05T01:40:03.132Z,100217.13
2023-03-05T01:45:12.310Z,100196.00
2023-03-05T01:50:20.890Z,100203.50
2023-03-05T01:55:26.531Z,100148.47
2023-03-05T02:00:35.354Z,100196.81
2023-03-05T02:05:39.690Z,100202.81
2023-03-05T02:10:47.805Z,100222.56
2023-03-05T02:15:51.247Z,100208.72
2023-03-05T02:20:56.449Z,100212.78
2023-03-05T02:26:00.228Z,100218.44
2023-03-05T02:31:02.473Z,100208.09
2023-03-05T02:36:05.010Z,100211.72
2023-03-05T02:41:07.172Z,100212.53
2023-03-05T02:46:09.847Z,100220.16
2023-03-05T02:51:12.224Z,100214.13
2023-03-05T02:56:14.382Z,100201.47
2023-03-05T03:01:16.602Z,100201.31
2023-03-05T03:06:18.734Z,100200.06
2023-03-05T03:11:21.531Z,100190.03
2023-03-05T03:16:23.684Z,100181.78
2023-03-05T03:21:26.967Z,100194.91
2023-03-05T03:26:29.160Z,100193.94
2023-03-05T03:31:31.275Z,100196.72
2023-03-05T03:36:34.687Z,100187.28
2023-03-05T03:41:40.894Z,100168.38
2023-03-05T03:46:44.585Z,100175.91
2023-03-05T03:51:48.373Z,100182.75
2023-03-05T03:56:50.852Z,100182.28
2023-03-05T04:01:53.130Z,100175.91
2023-03-05T04:06:55.247Z,100198.09
2023-03-05T04:11:57.389Z,100198.22
2023-03-05T04:16:59.587Z,100183.59
2023-03-05T04:22:01.754Z,100165.53
2023-03-05T04:27:04.098Z,100185.66
2023-03-05T04:32:06.780Z,100179.84
2023-03-05T04:37:08.881Z,100185.78
2023-03-05T04:42:11.017Z,100170.88
2023-03-05T04:47:13.170Z,100184.97
2023-03-05T04:52:15.606Z,100178.22
2023-03-05T04:57:18.036Z,100176.06
2023-03-05T05:02:20.134Z,100178.69
2023-03-05T05:07:22.337Z,100180.50
2023-03-05T05:12:24.515Z,100174.22
2023-03-05T05:17:28.173Z,100180.00
2023-03-05T05:22:30.344Z,100172.81
2023-03-05T05:27:32.633Z,100166.41
2023-03-05T05:32:35.000Z,100185.53
2023-03-05T05:37:37.164Z,100182.22
2023-03-05T05:42:39.450Z,100189.91
2023-03-05T05:47:41.575Z,100186.13
2023-03-05T05:52:43.745Z,100203.25
2023-03-05T05:57:45.965Z,100202.41
2023-03-05T06:02:48.197Z,100195.47
2023-03-05T06:07:50.385Z,100214.28
2023-03-05T06:12:52.641Z,100220.41
2023-03-05T06:17:54.869Z,100212.03
2023-03-05T06:22:57.003Z,100213.56
2023-03-05T06:27:59.336Z,100224.22
2023-03-05T06:33:01.476Z,100215.00
2023-03-05T06:38:03.714Z,100221.50
2023-03-05T06:43:06.211Z,100235.94
2023-03-05T06:48:08.345Z,100223.72
2023-03-05T06:53:10.612Z,100206.09
2023-03-05T06:58:12.750Z,100226.66
2023-03-05T07:03:15.160Z,100224.03
2023-03-05T07:08:17.937Z,100211.53
2023-03-05T07:13:21.350Z,100218.41
2023-03-05T07:18:23.521Z,100221.78
2023-03-05T07:23:25.651Z,100225.34
2023-03-05T07:28:27.868Z,100227.66
2023-03-05T07:33:30.160Z,100227.06
2023-03-05T07:38:33.721Z,100214.38
2023-03-05T07:43:35.956Z,100223.37
2023-03-05T07:48:38.329Z,100220.06
2023-03-05T07:53:40.897Z,100212.72
2023-03-05T07:58:43.198Z,100214.59
2023-03-05T08:03:46.867Z,100214.00
2023-03-05T08:08:49.168Z,100206.97
2023-03-05T08:13:51.587Z,100204.81
2023-03-05T08:18:58.426Z,100198.59
2023-03-05T08:24:03.202Z,100204.62
2023-03-05T08:29:07.194Z,100212.00
2023-03-05T08:34:09.330Z,100196.34
2023-03-05T08:39:11.768Z,100189.00
2023-03-05T08:44:13.914Z,100201.09
2023-03-05T08:49:15.997Z,100199.50
2023-03-05T08:54:18.148Z,100185.87
2023-03-05T08:59:20.237Z,100207.38
2023-03-05T09:04:22.368Z,100187.19
2023-03-05T09:09:25.027Z,100194.22
2023-03-05T09:14:30.467Z,100189.44
2023-03-05T09:19:32.647Z,100188.16
2023-03-05T09:24:34.832Z,100167.22
2023-03-05T09:29:36.940Z,100186.25
2023-03-05T09:34:39.121Z,100157.97
2023-03-05T09:39:41.230Z,100184.22
2023-03-05T09:45:02.355Z,100179.84
2023-03-05T09:50:07.431Z,100170.34
2023-03-05T09:55:14.758Z,100171.53
2023-03-05T10:00:25.040Z,100152.22
2023-03-05T10:06:04.098Z,100162.84
2023-03-05T10:11:17.728Z,100159.03
2023-03-05T10:16:41.046Z,100161.72
2023-03-05T10:21:54.382Z,100153.56
2023-03-05T10:27:02.628Z,100158.38
2023-03-05T10:32:31.518Z,100142.78
2023-03-05T10:38:04.744Z,100130.62
2023-03-05T10:43:36.674Z,100142.47
2023-03-05T10:48:58.765Z,100067.56
2023-03-05T10:54:25.650Z,100124.56
2023-03-05T10:59:28.267Z,100125.25
2023-03-05T11:04:36.082Z,100123.59
2023-03-05T11:09:38.361Z,100112.00
2023-03-05T11:15:02.864Z,100120.31
2023-03-05T11:20:26.341Z,100123.59
2023-03-05T11:25:30.525Z,100094.87
2023-03-05T11:30:37.535Z,100077.31
2023-03-05T11:35:42.069Z,100086.41
2023-03-05T11:40:45.476Z,100088.25
2023-03-05T11:45:54.552Z,100086.22
2023-03-05T11:51:01.028Z,100083.63
2023-03-05T11:56:39.348Z,100072.62
2023-03-05T12:01:54.815Z,100060.16
2023-03-05T12:07:00.520Z,100063.56
2023-03-05T12:12:18.700Z,100068.50
2023-03-05T12:17:28.967Z,100049.81
2023-03-05T12:22:39.826Z,100040.84
2023-03-05T12:27:42.518Z,100029.97
2023-03-05T12:33:03.647Z,100015.81
2023-03-05T12:38:32.943Z,100009.44
2023-03-05T12:43:35.142Z,100000.75
2023-03-05T12:48:43.805Z,99988.59
2023-03-05T12:53:52.048Z,100002.13
2023-03-05T12:58:58.811Z,99977.03
2023-03-05T13:04:10.963Z,99958.56
2023-03-05T13:10:18.727Z,99970.13
2023-03-05T13:15:23.616Z,99963.03
2023-03-05T13:20:42.719Z,99970.56
2023-03-05T13:25:47.935Z,99975.44
2023-03-05T13:31:02.407Z,99974.12
2023-03-05T13:36:05.849Z,99947.66
2023-03-05T13:41:28.787Z,99980.28
2023-03-05T13:46:39.217Z,99967.34
2023-03-05T13:51:46.953Z,99968.38
2023-03-05T13:57:08.495Z,99964.28
2023-03-05T14:02:19.820Z,99980.84
2023-03-05T14:07:52.045Z,99960.00
2023-03-05T14:12:54.726Z,99963.19
2023-03-05T14:18:15.776Z,99973.03
2023-03-05T14:23:33.041Z,99985.34
2023-03-05T14:28:37.110Z,99982.50
2023-03-05T14:33:40.736Z,99956.75
2023-03-05T14:38:43.317Z,99961.59
2023-03-05T14:43:45.567Z,99954.16
2023-03-05T14:48:48.060Z,99940.34
2023-03-05T14:53:51.177Z,99919.88
2023-03-05T14:58:53.902Z,99906.66
2023-03-05T15:03:56.083Z,99930.34
2023-03-05T15:08:58.541Z,99917.78
2023-03-05T15:14:00.676Z,99925.16
2023-03-05T15:19:03.813Z,99904.09
2023-03-05T15:24:06.217Z,99935.59
2023-03-05T15:29:09.057Z,99933.78
2023-03-05T15:34:14.597Z,99911.66
2023-03-05T15:39:27.378Z,99916.16
2023-03-05T15:44:29.561Z,99916.28
2023-03-05T15:49:31.926Z,99937.00
2023-03-05T15:54:35.728Z,99939.16
2023-03-05T15:59:39.299Z,99947.44
2023-03-05T16:04:41.552Z,99937.69
2023-03-05T16:09:50.737Z,99948.06
2023-03-05T16:14:52.877Z,99946.75
2023-03-05T16:19:55.879Z,99962.72
2023-03-05T16:24:59.168Z,99964.19
2023-03-05T16:30:01.358Z,99972.38
2023-03-05T16:35:03.764Z,99950.19
2023-03-05T16:40:07.239Z,99961.66
2023-03-05T16:45:10.860Z,99961.75
2023-03-05T16:50:13.246Z,99966.44
2023-03-05T16:55:15.449Z,99967.81
2023-03-05T17:00:18.855Z,99972.53
2023-03-05T17:05:21.122Z,99965.09
2023-03-05T17:10:23.678Z,99926.25
2023-03-05T17:15:25.866Z,99965.66
2023-03-05T17:20:28.156Z,99977.38
2023-03-05T17:25:30.397Z,99969.91
2023-03-05T17:30:33.465Z,99975.00
2023-03-05T17:35:35.815Z,99987.19
2023-03-05T17:40:38.052Z,99986.53
2023-03-05T17:45:40.368Z,99981.09
2023-03-05T17:50:44.952Z,99986.06
2023-03-05T17:55:47.228Z,99990.16
2023-03-05T18:00:49.502Z,99988.09
2023-03-05T18:05:59.535Z,99991.59
2023-03-05T18:11:02.042Z,99998.31
2023-03-05T18:16:04.467Z,99979.50
2023-03-05T18:21:06.636Z,99977.03
2023-03-05T18:26:08.875Z,99982.59
2023-03-05T18:31:11.237Z,99980.63
2023-03-05T18:36:15.222Z,99975.75
2023-03-05T18:41:27.533Z,99975.41
2023-03-05T18:46:30.268Z,99962.22
2023-03-05T18:51:33.868Z,99969.56
2023-03-05T18:56:36.014Z,99960.16
2023-03-05T19:01:38.500Z,99971.13
2023-03-05T19:06:40.695Z,99965.88
2023-03-05T19:11:42.896Z,99959.62
2023-03-05T19:16:45.107Z,99970.31
2023-03-05T19:21:49.529Z,99966.66
2023-03-05T19:26:55.381Z,99975.38
2023-03-05T19:31:57.689Z,99975.94
2023-03-05T19:36:59.878Z,99975.28
2023-03-05T19:42:04.614Z,99965.19
2023-03-05T19:47:07.305Z,99970.22
2023-03-05T19:52:09.615Z,99968.47
2023-03-05T19:57:11.896Z,99969.03
2023-03-05T20:02:14.063Z,99963.34
2023-03-05T20:07:19.413Z,99959.78
2023-03-05T20:12:23.087Z,99963.53
2023-03-05T20:17:34.906Z,99964.59
2023-03-05T20:22:37.055Z,99966.62
2023-03-05T20:27:39.639Z,99953.84
2023-03-05T20:32:41.823Z,99962.59
2023-03-05T20:38:30.745Z,99940.06
2023-03-05T20:43:36.602Z,99960.34
2023-03-05T20:48:48.050Z,99953.16
2023-03-05T20:53:58.082Z,99959.22
2023-03-05T20:59:03.867Z,99953.47
2023-03-05T21:04:06.293Z,99949.19
2023-03-05T21:09:08.426Z,99931.72
2023-03-05T21:14:10.631Z,99951.75
2023-03-05T21:19:12.743Z,99949.25
2023-03-05T21:25:13.856Z,99942.34
2023-03-05T21:30:17.961Z,99948.03
2023-03-05T21:35:21.792Z,99932.50
2023-03-05T21:40:24.042Z,99944.84
2023-03-05T21:45:28.183Z,99955.41
2023-03-05T21:50:31.820Z,99937.72
2023-03-05T21:56:38.187Z,99947.06
2023-03-05T22:01:40.294Z,99935.91
2023-03-05T22:06:42.474Z,99925.09
2023-03-05T22:11:44.947Z,99925.91
2023-03-05T22:16:47.101Z,99929.09
2023-03-05T22:21:51.363Z,99938.13
2023-03-05T22:26:53.454Z,99923.69
2023-03-05T22:31:57.767Z,99922.03
2023-03-05T22:36:59.906Z,99915.41
2023-03-05T22:42:05.372Z,99884.50
2023-03-05T22:47:07.483Z,99915.16
2023-03-05T22:52:09.588Z,99906.19
2023-03-05T22:57:11.996Z,99901.91
2023-03-05T23:02:14.141Z,99901.44
2023-03-05T23:07:25.028Z,99900.59
2023-03-05T23:12:30.199Z,99896.00
2023-03-05T23:17:32.575Z,99896.97
2023-03-05T23:22:35.888Z,99889.47
2023-03-05T23:27:38.308Z,99888.41
2023-03-05T23:32:40.640Z,99880.16
2023-03-05T23:37:43.218Z,99897.91
2023-03-05T23:42:46.159Z,99875.62
2023-03-05T23:47:49.049Z,99894.19
2023-03-05T23:52:51.689Z,99880.44
2023-03-05T23:57:55.205Z,99889.16
